»·PEaware :: TEXAN27 KRND-KRND

TEXAN27 :: KRND-KRND

FLIGHT INFORMATION

Flight Status: Arrived
Operator: Unknown
More flights by this operator :: More flights under this callsign
Pilot: Indie I. (23348)
Aircraft: BEECH AIRCRAFT T-6A TEXAN
(TEX2)
More flights by this aircraft type
Origin: KRND Randolph AFB
United States
Destination: KRND Randolph AFB
United States
More flights between these airports :: More routes between these airports
Route: RND157024 RND131024
File this flight plan on PilotEdge
Remarks:
Altitude:
(Current/Filed)
13,000ft
Speed:
(Current/Filed)
200kts
Departed: 11-Aug-20 01:03 PM
Arrived: 11-Aug-20 01:29 PM
Distance/Time
Traveled:
1nm/0:26
Distance/Time
To Go:
Arrived

Flight Plot

Page will automatically refresh every two minutes.

Flight plan parsing failed; only flown route is shown


Map Options




Map Legend


Flown Route
Filed Route
Departure Airport
Arrival Airport
Navaid (VOR, NDB)
Fix

Horizontal Profiles

Position Reports

Time Latitude Longitude Heading Altitude Ground
Speed
11-Aug-20 12:34 29.534795 -98.292181 204 765ft 0kts
11-Aug-20 12:35 29.534792 -98.292182 204 765ft 0kts
11-Aug-20 12:36 29.534790 -98.292184 204 765ft 0kts
11-Aug-20 12:37 29.534787 -98.292185 204 765ft 0kts
11-Aug-20 12:38 29.534784 -98.292186 204 765ft 0kts
11-Aug-20 12:39 29.534782 -98.292188 204 765ft 0kts
11-Aug-20 12:40 29.534779 -98.292189 204 765ft 0kts
11-Aug-20 12:41 29.534777 -98.292191 204 765ft 0kts
11-Aug-20 12:42 29.534774 -98.292192 204 765ft 0kts
11-Aug-20 12:43 29.534772 -98.292193 204 765ft 0kts
11-Aug-20 12:49 29.534757 -98.292201 204 765ft 0kts
11-Aug-20 12:50 29.534754 -98.292203 204 765ft 0kts
11-Aug-20 12:51 29.534752 -98.292204 204 765ft 0kts
11-Aug-20 12:52 29.534749 -98.292205 204 765ft 0kts
11-Aug-20 12:53 29.534747 -98.292207 204 765ft 0kts
11-Aug-20 12:54 29.534744 -98.292208 204 765ft 0kts
11-Aug-20 12:55 29.534742 -98.292209 204 765ft 0kts
11-Aug-20 12:56 29.534742 -98.292209 204 765ft 0kts
11-Aug-20 12:57 29.534740 -98.292210 204 765ft 0kts
11-Aug-20 12:58 29.534738 -98.292211 204 765ft 0kts
11-Aug-20 12:59 29.534736 -98.292212 204 765ft 0kts
11-Aug-20 13:00 29.534734 -98.292213 204 765ft 0kts
11-Aug-20 13:01 29.534580 -98.292392 233 765ft 10kts
11-Aug-20 13:02 29.513495 -98.279376 161 1325ft 171kts
11-Aug-20 13:03 29.465683 -98.267471 177 3356ft 185kts
11-Aug-20 13:04 29.412090 -98.243806 146 3013ft 233kts
11-Aug-20 13:05 29.361536 -98.209188 166 4148ft 190kts
11-Aug-20 13:06 29.310087 -98.202722 162 7151ft 182kts
11-Aug-20 13:07 29.259457 -98.184254 162 10569ft 207kts
11-Aug-20 13:08 29.202409 -98.165065 162 13097ft 237kts
11-Aug-20 13:09 29.135467 -98.141340 159 13189ft 257kts
11-Aug-20 13:10 29.137909 -98.067707 64 13124ft 268kts
11-Aug-20 13:11 29.173122 -97.991922 60 12865ft 275kts
11-Aug-20 13:12 29.204712 -97.904682 78 9142ft 320kts
11-Aug-20 13:13 29.217351 -97.845745 342 7592ft 269kts
11-Aug-20 13:14 29.232746 -97.913717 246 7444ft 235kts
11-Aug-20 13:15 29.244715 -97.905191 317 6318ft 243kts
11-Aug-20 13:16 29.227210 -97.967719 278 6373ft 210kts
11-Aug-20 13:17 29.271198 -98.021082 317 5494ft 255kts
11-Aug-20 13:18 29.323413 -98.072749 317 4172ft 250kts
11-Aug-20 13:19 29.372272 -98.125452 316 2506ft 233kts
11-Aug-20 13:20 29.408430 -98.182156 291 2297ft 228kts
11-Aug-20 13:21 29.432522 -98.249866 293 1768ft 230kts
11-Aug-20 13:22 29.457955 -98.314602 302 1736ft 221kts
11-Aug-20 13:23 29.512374 -98.327986 19 1874ft 213kts
11-Aug-20 13:24 29.563419 -98.338318 51 1812ft 214kts
11-Aug-20 13:25 29.534381 -98.292806 151 1807ft 213kts
11-Aug-20 13:26 29.531911 -98.314027 334 1539ft 126kts
11-Aug-20 13:27 29.533075 -98.291905 150 772ft 106kts
11-Aug-20 13:29 29.519021 -98.281793 56 765ft 24kts
11-Aug-20 13:30 29.520374 -98.279817 19 765ft 18kts
11-Aug-20 13:31 29.520374 -98.279817 19 765ft 18kts
11-Aug-20 13:32 29.520374 -98.279817 19 765ft 18kts
11-Aug-20 13:33 29.520374 -98.279817 19 765ft 18kts
11-Aug-20 13:34 29.534789 -98.291447 154 766ft 0kts
11-Aug-20 13:35 29.534789 -98.291447 154 766ft 0kts
11-Aug-20 13:36 29.534789 -98.291447 154 766ft 0kts
11-Aug-20 13:37 29.534789 -98.291447 154 766ft 0kts
11-Aug-20 13:38 29.534789 -98.291447 154 766ft 0kts
11-Aug-20 13:39 29.534789 -98.291447 154 766ft 0kts
11-Aug-20 13:40 29.534789 -98.291447 154 766ft 0kts
11-Aug-20 13:41 29.534789 -98.291447 154 766ft 0kts
11-Aug-20 13:42 29.534789 -98.291447 154 766ft 0kts
11-Aug-20 13:43 29.534789 -98.291447 154 765ft 0kts
11-Aug-20 13:44 29.534138 -98.292819 151 765ft 11kts

Navigation Log

Ident Type
Flight plan parsing failed, navigation log unavailable